Time;durP1;ratioP1;P1;durP2;ratioP2;P2;SDS_P1;SDS_P2;PMS_P1;PMS_P2;Temp;Humidity;BMP_temperature;BMP_pressure;BME280_temperature;BME280_humidity;BME280_pressure;Samples;Min_cycle;Max_cycle;Signal;HPM_P1;HPM_P2
2022/07/13 00:01:21;;;;;;;5.63;3.53;;;22.20;61.80;;;;;;5059724;28;20110;-80
2022/07/13 00:03:47;;;;;;;4.70;2.92;;;22.20;63.00;;;;;;5041926;28;20033;-80
2022/07/13 00:06:12;;;;;;;8.23;3.22;;;22.00;60.70;;;;;;5041863;28;20025;-80
2022/07/13 00:08:38;;;;;;;3.50;2.60;;;22.00;61.70;;;;;;5043380;28;20037;-80
2022/07/13 00:11:04;;;;;;;2.60;2.40;;;22.00;62.50;;;;;;5055013;28;20044;-80
2022/07/13 00:13:29;;;;;;;3.33;2.63;;;22.10;62.40;;;;;;5034869;28;20060;-80
2022/07/13 00:15:55;;;;;;;2.42;2.22;;;22.20;63.30;;;;;;5057751;28;20032;-80
2022/07/13 00:18:20;;;;;;;3.85;2.83;;;22.10;62.30;;;;;;5044329;28;20089;-80
2022/07/13 00:20:47;;;;;;;5.05;3.00;;;22.10;62.40;;;;;;5053938;28;20084;-80
2022/07/13 00:23:12;;;;;;;3.05;2.75;;;22.00;61.30;;;;;;5058721;28;20029;-80
2022/07/13 00:25:38;;;;;;;2.70;2.45;;;22.00;61.00;;;;;;5042933;28;20055;-80
2022/07/13 00:28:03;;;;;;;3.65;2.65;;;22.00;62.20;;;;;;5031623;28;20110;-80
2022/07/13 00:30:29;;;;;;;4.57;3.03;;;22.10;63.20;;;;;;5054232;28;20041;-80
2022/07/13 00:32:55;;;;;;;3.00;2.45;;;22.10;62.20;;;;;;5046828;28;20471;-80
2022/07/13 00:35:20;;;;;;;4.05;3.05;;;22.00;62.70;;;;;;5049280;28;20041;-80
2022/07/13 00:37:46;;;;;;;3.85;3.30;;;22.00;62.70;;;;;;5054586;28;20056;-80
2022/07/13 00:40:12;;;;;;;4.45;2.50;;;22.00;62.90;;;;;;5057202;28;20078;-80
2022/07/13 00:42:37;;;;;;;6.15;3.65;;;22.10;63.20;;;;;;5043083;28;20044;-79
2022/07/13 00:45:04;;;;;;;4.15;2.53;;;22.00;62.90;;;;;;5032979;28;20039;-78
2022/07/13 00:47:31;;;;;;;5.10;3.05;;;21.80;62.70;;;;;;5041700;28;20119;-78
2022/07/13 00:49:57;;;;;;;3.03;2.72;;;21.80;65.50;;;;;;5045011;28;20052;-79
2022/07/13 00:52:23;;;;;;;7.43;3.90;;;21.60;63.70;;;;;;5046840;28;20555;-79
2022/07/13 00:54:49;;;;;;;7.70;4.00;;;21.60;63.90;;;;;;5011729;28;20113;-79
2022/07/13 00:57:15;;;;;;;4.63;4.05;;;21.40;61.90;;;;;;5044439;28;20029;-78
2022/07/13 00:59:40;;;;;;;6.45;4.57;;;21.30;63.00;;;;;;5043309;28;20083;-79
2022/07/13 01:02:06;;;;;;;5.47;4.75;;;21.20;63.40;;;;;;5030592;28;20550;-79
2022/07/13 01:04:31;;;;;;;4.57;4.18;;;21.10;63.50;;;;;;5058492;28;20066;-79
2022/07/13 01:06:57;;;;;;;5.47;4.43;;;21.00;63.60;;;;;;5040720;28;20079;-79
2022/07/13 01:09:22;;;;;;;6.90;4.25;;;20.90;65.80;;;;;;5040557;28;20040;-79
2022/07/13 01:11:48;;;;;;;6.65;4.50;;;20.80;68.10;;;;;;5021207;28;20024;-79
2022/07/13 01:14:14;;;;;;;6.43;4.68;;;20.80;67.60;;;;;;5050615;28;20040;-79
2022/07/13 01:16:40;;;;;;;4.28;3.67;;;20.80;65.90;;;;;;5053205;28;20044;-79
2022/07/13 01:19:06;;;;;;;5.30;2.72;;;20.80;66.00;;;;;;5031875;28;20040;-79
2022/07/13 01:21:33;;;;;;;3.10;2.78;;;20.90;66.10;;;;;;5043253;28;20045;-79
2022/07/13 01:23:58;;;;;;;5.70;4.03;;;20.90;65.20;;;;;;5051687;28;20035;-79
2022/07/13 01:26:24;;;;;;;5.95;4.88;;;20.80;66.20;;;;;;5051892;28;20116;-79
2022/07/13 01:28:49;;;;;;;6.35;4.45;;;20.80;65.50;;;;;;5031712;28;20056;-79
2022/07/13 01:31:36;;;;;;;6.55;4.45;;;20.70;65.10;;;;;;5011916;28;20055;-79
2022/07/13 01:34:01;;;;;;;7.78;4.05;;;20.70;65.30;;;;;;5038560;28;20124;-79
2022/07/13 01:36:28;;;;;;;5.10;4.60;;;20.60;65.80;;;;;;5055958;28;20119;-79
2022/07/13 01:38:53;;;;;;;5.50;4.25;;;20.50;67.20;;;;;;5023663;28;20042;-79
2022/07/13 01:41:19;;;;;;;4.90;4.50;;;20.50;67.00;;;;;;5043229;28;20342;-79
2022/07/13 01:43:45;;;;;;;8.35;4.68;;;20.40;68.60;;;;;;5052623;28;20353;-79
2022/07/13 01:46:10;;;;;;;6.35;4.38;;;20.30;69.10;;;;;;5057015;28;20037;-79
2022/07/13 01:48:36;;;;;;;5.63;4.00;;;20.20;70.50;;;;;;5057044;28;20036;-79
2022/07/13 01:51:01;;;;;;;6.28;4.20;;;20.20;71.20;;;;;;5037508;28;20484;-79
2022/07/13 01:53:27;;;;;;;8.63;4.47;;;20.10;71.30;;;;;;5053481;28;20109;-79
2022/07/13 01:55:52;;;;;;;4.70;4.05;;;20.10;72.90;;;;;;5035750;28;20033;-80
2022/07/13 01:58:18;;;;;;;7.55;4.05;;;20.10;81.90;;;;;;5039802;28;20040;-79
2022/07/13 02:00:44;;;;;;;6.40;4.45;;;20.00;73.40;;;;;;5049148;28;20029;-79
2022/07/13 02:03:09;;;;;;;7.80;4.43;;;20.10;71.90;;;;;;5041172;28;20051;-79
2022/07/13 02:05:35;;;;;;;10.25;5.07;;;20.10;73.20;;;;;;5053789;28;20032;-79
2022/07/13 02:08:01;;;;;;;6.30;4.70;;;20.00;76.20;;;;;;5041646;28;20040;-79
2022/07/13 02:10:34;;;;;;;7.85;4.40;;;20.00;75.00;;;;;;5053687;28;20522;-80
2022/07/13 02:13:01;;;;;;;6.47;5.00;;;20.10;77.10;;;;;;5010596;28;20056;-80
2022/07/13 02:15:27;;;;;;;6.72;4.95;;;20.30;93.30;;;;;;5039267;28;20051;-79
2022/07/13 02:17:53;;;;;;;7.68;4.82;;;20.00;95.20;;;;;;5045137;28;20024;-79
2022/07/13 02:20:18;;;;;;;5.28;4.45;;;20.00;91.10;;;;;;5041927;28;20103;-79
2022/07/13 02:22:44;;;;;;;5.43;4.45;;;20.00;90.90;;;;;;5043552;28;20025;-80
2022/07/13 02:25:10;;;;;;;5.03;4.53;;;20.00;76.20;;;;;;5028623;28;20702;-80
2022/07/13 02:27:36;;;;;;;7.15;4.53;;;20.00;77.00;;;;;;5058773;28;20456;-79
2022/07/13 02:30:02;;;;;;;10.40;4.95;;;20.00;75.40;;;;;;5054116;28;20031;-79
2022/07/13 02:32:27;;;;;;;7.05;4.47;;;19.90;74.60;;;;;;5042407;28;20487;-80
2022/07/13 02:34:53;;;;;;;8.57;4.10;;;20.00;74.80;;;;;;5047434;28;20047;-79
2022/07/13 02:37:19;;;;;;;4.55;4.13;;;20.00;75.50;;;;;;5041758;28;20029;-79
2022/07/13 02:39:44;;;;;;;7.88;4.53;;;20.00;73.40;;;;;;5058161;28;20524;-80
2022/07/13 02:42:10;;;;;;;4.22;3.83;;;20.00;74.90;;;;;;5059765;28;20040;-79
2022/07/13 02:44:35;;;;;;;4.25;3.80;;;19.90;74.80;;;;;;5058777;28;20051;-79
2022/07/13 02:47:01;;;;;;;3.92;3.60;;;19.80;74.60;;;;;;5047296;28;20060;-79
2022/07/13 02:49:26;;;;;;;4.35;3.95;;;19.80;76.20;;;;;;5061129;28;20032;-79
2022/07/13 02:51:52;;;;;;;4.65;4.18;;;19.80;78.60;;;;;;5011621;28;20041;-79
2022/07/13 02:54:20;;;;;;;5.75;3.42;;;19.80;75.60;;;;;;5046295;28;20041;-79
2022/07/13 02:56:46;;;;;;;4.30;3.60;;;19.80;77.40;;;;;;5056844;28;20389;-79
2022/07/13 02:59:11;;;;;;;7.43;4.30;;;19.80;76.80;;;;;;5029318;28;20036;-79
2022/07/13 03:01:37;;;;;;;7.20;3.95;;;19.90;77.00;;;;;;5054554;28;20383;-79
2022/07/13 03:04:02;;;;;;;5.35;3.58;;;19.90;75.60;;;;;;5059990;28;20340;-79
2022/07/13 03:06:28;;;;;;;4.40;3.28;;;19.90;76.30;;;;;;5056358;28;20033;-79
2022/07/13 03:08:53;;;;;;;4.20;3.80;;;19.90;74.60;;;;;;5055120;28;20943;-79
2022/07/13 03:11:19;;;;;;;4.32;3.88;;;19.90;75.20;;;;;;5056963;28;21041;-79
2022/07/13 03:13:44;;;;;;;6.03;4.20;;;19.90;75.00;;;;;;5039009;28;20056;-79
2022/07/13 03:16:10;;;;;;;6.18;4.55;;;19.90;75.30;;;;;;5059167;28;20052;-79
2022/07/13 03:18:35;;;;;;;5.07;4.28;;;19.90;74.20;;;;;;5059033;28;20033;-79
2022/07/13 03:21:01;;;;;;;4.22;3.88;;;19.80;75.50;;;;;;5051769;28;20163;-79
2022/07/13 03:23:27;;;;;;;4.63;4.10;;;19.80;75.50;;;;;;5040343;28;20029;-79
2022/07/13 03:25:52;;;;;;;4.00;3.60;;;19.80;74.60;;;;;;5023693;28;20028;-79
2022/07/13 03:28:18;;;;;;;5.43;3.05;;;19.90;73.70;;;;;;5060362;28;20055;-79
2022/07/13 03:30:44;;;;;;;5.35;4.07;;;19.90;72.60;;;;;;5052443;28;20033;-79
2022/07/13 03:33:09;;;;;;;4.95;4.00;;;19.90;71.90;;;;;;5033236;28;20048;-79
2022/07/13 03:35:35;;;;;;;4.57;3.97;;;19.90;72.20;;;;;;5039677;28;20090;-79
2022/07/13 03:38:00;;;;;;;4.80;4.35;;;19.90;74.50;;;;;;5055262;28;20025;-79
2022/07/13 03:40:26;;;;;;;5.18;4.15;;;19.90;74.50;;;;;;5055923;28;20037;-79
2022/07/13 03:42:51;;;;;;;6.43;4.20;;;19.80;73.50;;;;;;5016736;28;20131;-79
2022/07/13 03:45:17;;;;;;;3.22;2.92;;;19.90;73.10;;;;;;5043819;28;20031;-79
2022/07/13 03:47:42;;;;;;;3.80;3.45;;;19.90;71.90;;;;;;5058075;28;20033;-79
2022/07/13 03:50:08;;;;;;;4.05;3.53;;;20.00;72.90;;;;;;5058690;28;20083;-79
2022/07/13 03:52:34;;;;;;;4.10;3.78;;;20.10;73.40;;;;;;5056925;28;20087;-79
2022/07/13 03:54:59;;;;;;;5.55;4.05;;;20.00;72.60;;;;;;5044907;28;20040;-79
2022/07/13 03:57:25;;;;;;;5.13;4.60;;;19.90;71.60;;;;;;5056379;28;20028;-79
2022/07/13 03:59:51;;;;;;;6.30;4.97;;;19.70;71.90;;;;;;5039632;28;20550;-79
2022/07/13 04:02:16;;;;;;;4.80;4.35;;;19.80;74.60;;;;;;5042699;28;20033;-79
2022/07/13 04:04:42;;;;;;;4.40;4.00;;;19.80;73.50;;;;;;5038161;28;20056;-79
2022/07/13 04:07:07;;;;;;;6.45;5.10;;;19.80;76.00;;;;;;5032615;28;20447;-79
2022/07/13 04:09:33;;;;;;;6.75;4.13;;;20.00;75.80;;;;;;5056210;28;20076;-79
2022/07/13 04:11:58;;;;;;;5.88;4.75;;;19.90;74.10;;;;;;5040233;28;20029;-79
2022/07/13 04:14:24;;;;;;;4.80;4.40;;;19.90;76.30;;;;;;5040339;28;20029;-79
2022/07/13 04:16:49;;;;;;;5.13;4.40;;;19.90;73.20;;;;;;5039028;28;20338;-79
2022/07/13 04:19:15;;;;;;;4.65;3.50;;;19.90;71.10;;;;;;5054531;28;20049;-79
2022/07/13 04:21:40;;;;;;;5.03;4.43;;;19.90;71.10;;;;;;5055669;28;20020;-79
2022/07/13 04:24:07;;;;;;;4.22;3.83;;;20.00;71.00;;;;;;5037638;28;20052;-79
2022/07/13 04:26:33;;;;;;;7.68;4.70;;;19.90;70.50;;;;;;5052917;28;20032;-79
2022/07/13 04:28:58;;;;;;;6.05;4.70;;;19.90;71.40;;;;;;5028237;28;20120;-79
2022/07/13 04:31:24;;;;;;;5.47;4.57;;;19.90;71.30;;;;;;5057597;28;20143;-79
2022/07/13 04:33:50;;;;;;;4.88;4.00;;;19.90;71.90;;;;;;5040497;28;20042;-79
2022/07/13 04:36:15;;;;;;;6.20;4.78;;;20.00;70.90;;;;;;5010750;28;20029;-79
2022/07/13 04:38:41;;;;;;;4.10;3.70;;;20.00;71.50;;;;;;5043889;28;20021;-79
2022/07/13 04:41:06;;;;;;;4.30;3.90;;;20.00;72.40;;;;;;5030198;28;20026;-79
2022/07/13 04:43:32;;;;;;;7.10;4.50;;;20.10;71.80;;;;;;5043501;28;20151;-79
2022/07/13 04:45:58;;;;;;;6.50;3.72;;;20.10;71.90;;;;;;5030779;28;20086;-79
2022/07/13 04:48:23;;;;;;;5.25;4.15;;;20.10;73.30;;;;;;5037285;28;20032;-79
2022/07/13 04:50:49;;;;;;;6.60;3.92;;;20.20;74.00;;;;;;5059582;28;20392;-79
2022/07/13 04:53:14;;;;;;;5.35;3.78;;;20.30;74.40;;;;;;5055095;28;20025;-79
2022/07/13 04:55:40;;;;;;;5.65;4.25;;;20.40;75.60;;;;;;5059130;28;20029;-79
2022/07/13 04:58:07;;;;;;;5.28;3.35;;;20.60;74.20;;;;;;5032863;28;20028;-79
2022/07/13 05:00:33;;;;;;;4.75;3.80;;;20.60;76.80;;;;;;5055229;28;20036;-80
2022/07/13 05:02:59;;;;;;;4.60;2.92;;;20.80;74.70;;;;;;5044199;28;20032;-79
2022/07/13 05:05:25;;;;;;;3.13;2.83;;;20.90;72.70;;;;;;5052010;28;20041;-79
2022/07/13 05:07:51;;;;;;;3.55;3.25;;;20.90;73.80;;;;;;5039919;28;20034;-79
2022/07/13 05:10:16;;;;;;;3.05;2.67;;;20.90;73.50;;;;;;5034028;28;20122;-79
2022/07/13 05:12:42;;;;;;;4.57;2.38;;;21.10;72.50;;;;;;5057608;28;20055;-79
2022/07/13 05:15:09;;;;;;;2.53;2.33;;;21.20;71.50;;;;;;5013519;28;20037;-79
2022/07/13 05:17:34;;;;;;;3.70;3.13;;;21.20;73.10;;;;;;5053772;28;20032;-79
2022/07/13 05:20:00;;;;;;;5.88;3.08;;;21.30;74.20;;;;;;5053174;28;20110;-79
2022/07/13 05:22:25;;;;;;;2.78;2.58;;;21.30;72.40;;;;;;5051455;28;20120;-79
2022/07/13 05:24:51;;;;;;;2.42;2.22;;;21.30;72.20;;;;;;5041017;28;20028;-79
2022/07/13 05:27:17;;;;;;;3.20;2.67;;;21.40;73.80;;;;;;5046094;28;20392;-80
2022/07/13 05:29:43;;;;;;;4.47;2.28;;;21.40;73.00;;;;;;5043059;28;20032;-80
2022/07/13 05:32:08;;;;;;;3.22;2.80;;;21.50;72.40;;;;;;5030351;28;20025;-80
2022/07/13 05:34:34;;;;;;;3.15;2.10;;;21.50;72.40;;;;;;5057593;28;20611;-80
2022/07/13 05:36:59;;;;;;;4.57;2.63;;;21.60;72.50;;;;;;5022416;28;20046;-80
2022/07/13 05:39:25;;;;;;;5.30;2.47;;;21.70;71.60;;;;;;5030581;28;20037;-80
2022/07/13 05:41:51;;;;;;;3.58;2.42;;;21.80;72.60;;;;;;5008649;28;20040;-80
2022/07/13 05:44:16;;;;;;;2.42;1.83;;;21.90;72.20;;;;;;5025461;28;20496;-80
2022/07/13 05:46:42;;;;;;;4.53;1.85;;;21.90;70.90;;;;;;5044878;28;20139;-80
2022/07/13 05:49:07;;;;;;;2.42;2.13;;;22.00;71.40;;;;;;5036739;28;20029;-80
2022/07/13 05:51:33;;;;;;;2.78;2.00;;;22.10;70.50;;;;;;5050750;28;20772;-80
2022/07/13 05:53:58;;;;;;;2.65;1.70;;;22.20;70.10;;;;;;5026396;28;20029;-80
2022/07/13 05:56:24;;;;;;;1.95;1.58;;;22.30;69.10;;;;;;5053978;28;20029;-79
2022/07/13 05:58:49;;;;;;;2.72;2.35;;;22.40;68.70;;;;;;5038543;28;20033;-79
2022/07/13 06:01:15;;;;;;;2.65;1.98;;;22.50;68.10;;;;;;5040404;28;20025;-79
2022/07/13 06:03:42;;;;;;;1.90;1.42;;;22.60;67.60;;;;;;5043583;28;20067;-80
2022/07/13 06:06:07;;;;;;;3.90;1.70;;;22.80;67.20;;;;;;5039965;28;20033;-80
2022/07/13 06:08:33;;;;;;;4.35;1.90;;;22.80;66.60;;;;;;5057289;28;20044;-80
2022/07/13 06:10:58;;;;;;;3.72;1.90;;;23.00;66.30;;;;;;5052840;28;20029;-80
2022/07/13 06:13:24;;;;;;;3.47;1.40;;;23.20;66.70;;;;;;5054878;28;20025;-80
2022/07/13 06:15:50;;;;;;;1.58;1.48;;;23.50;65.50;;;;;;5031086;28;20037;-80
2022/07/13 06:18:15;;;;;;;1.90;1.42;;;23.50;65.00;;;;;;5055567;28;20107;-80
2022/07/13 06:20:41;;;;;;;1.90;1.58;;;23.80;65.10;;;;;;5053627;28;20025;-80
2022/07/13 06:23:09;;;;;;;5.30;1.80;;;24.10;64.20;;;;;;5042162;28;20031;-80
2022/07/13 06:25:36;;;;;;;3.05;1.60;;;24.40;64.00;;;;;;5054083;28;20120;-80
2022/07/13 06:28:01;;;;;;;2.22;1.80;;;24.70;63.10;;;;;;5037485;28;20090;-80
2022/07/13 06:30:27;;;;;;;4.32;1.60;;;25.00;62.70;;;;;;5036539;28;20400;-80
2022/07/13 06:32:52;;;;;;;9.55;1.50;;;25.30;61.40;;;;;;5027762;28;20364;-80
2022/07/13 06:35:18;;;;;;;2.45;1.67;;;25.60;61.40;;;;;;5053934;28;20484;-80
2022/07/13 06:37:43;;;;;;;1.55;1.45;;;25.70;60.50;;;;;;5055891;28;20511;-81
2022/07/13 06:40:10;;;;;;;2.75;1.50;;;25.90;60.90;;;;;;5036486;28;20052;-81
2022/07/13 06:42:35;;;;;;;3.08;1.73;;;26.00;60.70;;;;;;5043009;28;20052;-81
2022/07/13 06:45:01;;;;;;;2.22;1.88;;;26.20;60.80;;;;;;5041216;28;20033;-81
2022/07/13 06:47:26;;;;;;;4.22;1.77;;;26.30;60.50;;;;;;5055735;28;20028;-81
2022/07/13 06:49:52;;;;;;;3.63;1.38;;;26.00;59.20;;;;;;5056523;28;20083;-80
2022/07/13 06:52:18;;;;;;;1.63;1.45;;;26.00;59.60;;;;;;5050341;28;20051;-80
2022/07/13 06:54:43;;;;;;;3.70;1.63;;;26.10;58.80;;;;;;5038783;28;20426;-80
2022/07/13 06:57:09;;;;;;;1.42;1.33;;;26.20;58.70;;;;;;5043434;28;20032;-81
2022/07/13 06:59:34;;;;;;;3.33;1.60;;;26.40;58.00;;;;;;5045031;28;20028;-81
2022/07/13 07:02:00;;;;;;;1.75;1.50;;;26.20;58.10;;;;;;5009563;28;20033;-81
2022/07/13 07:04:25;;;;;;;3.95;1.20;;;26.50;58.40;;;;;;5052459;28;20032;-81
2022/07/13 07:06:51;;;;;;;2.25;1.63;;;26.50;57.60;;;;;;5028912;28;20074;-81
2022/07/13 07:09:17;;;;;;;3.75;1.60;;;26.30;57.70;;;;;;5039107;28;20052;-81
2022/07/13 07:11:44;;;;;;;3.95;1.45;;;26.50;57.50;;;;;;5050730;28;20542;-81
2022/07/13 07:14:10;;;;;;;2.22;1.50;;;26.30;57.70;;;;;;5012655;28;20025;-82
2022/07/13 07:16:36;;;;;;;2.25;1.48;;;26.20;58.00;;;;;;5046503;28;20021;-81
2022/07/13 07:19:03;;;;;;;3.90;1.48;;;26.30;57.80;;;;;;5043209;28;20087;-81
2022/07/13 07:21:28;;;;;;;2.78;1.67;;;26.30;57.90;;;;;;5057828;28;20036;-81
2022/07/13 07:23:54;;;;;;;3.60;1.60;;;26.80;57.70;;;;;;5032454;28;20052;-79
2022/07/13 07:26:19;;;;;;;2.50;1.70;;;26.80;57.00;;;;;;5047316;28;20496;-80
2022/07/13 07:28:46;;;;;;;2.75;1.90;;;26.80;57.40;;;;;;5007740;28;20028;-79
2022/07/13 07:31:12;;;;;;;4.07;1.50;;;26.80;57.20;;;;;;5008369;28;20028;-80
2022/07/13 07:33:37;;;;;;;1.50;1.40;;;26.90;56.90;;;;;;5042977;28;20032;-79
2022/07/13 07:36:04;;;;;;;3.47;1.88;;;27.20;57.40;;;;;;5029782;28;20044;-80
2022/07/13 07:38:29;;;;;;;3.30;1.90;;;27.60;57.50;;;;;;5043160;28;20447;-80
2022/07/13 07:40:55;;;;;;;2.03;1.30;;;27.70;56.60;;;;;;5014022;28;20029;-81
2022/07/13 07:43:20;;;;;;;1.95;1.60;;;27.80;56.30;;;;;;5045914;28;20393;-81
2022/07/13 07:45:46;;;;;;;3.53;1.50;;;28.00;57.40;;;;;;5059694;28;20369;-81
2022/07/13 07:48:11;;;;;;;1.20;1.05;;;28.50;56.40;;;;;;5040479;28;20033;-81
2022/07/13 07:50:37;;;;;;;1.65;1.55;;;28.50;55.10;;;;;;5045730;28;20029;-81
2022/07/13 07:53:03;;;;;;;1.83;1.48;;;29.10;53.90;;;;;;5033341;28;20033;-81
2022/07/13 07:55:28;;;;;;;4.22;1.80;;;29.30;53.30;;;;;;5046897;28;20512;-82
2022/07/13 07:57:54;;;;;;;2.75;1.50;;;29.40;52.70;;;;;;5030567;28;20497;-82
2022/07/13 08:00:19;;;;;;;2.58;1.75;;;29.60;53.30;;;;;;5050305;28;20189;-82
2022/07/13 08:02:46;;;;;;;2.40;1.60;;;29.50;53.30;;;;;;5048830;28;20267;-82
2022/07/13 08:05:11;;;;;;;3.58;1.63;;;29.80;53.60;;;;;;5051801;28;20107;-82
2022/07/13 08:07:44;;;;;;;2.53;1.52;;;29.70;53.00;;;;;;5058633;28;20067;-82
2022/07/13 08:10:10;;;;;;;3.63;1.95;;;29.90;53.90;;;;;;5018452;28;20429;-82
2022/07/13 08:12:36;;;;;;;2.90;1.55;;;30.00;54.60;;;;;;5049254;28;20105;-82
2022/07/13 08:15:02;;;;;;;5.60;1.70;;;30.30;54.40;;;;;;5060331;28;20413;-82
2022/07/13 08:17:28;;;;;;;3.10;1.88;;;30.30;53.60;;;;;;5044986;28;20029;-83
2022/07/13 08:19:53;;;;;;;3.60;1.70;;;30.30;54.10;;;;;;5014359;28;20033;-82
2022/07/13 08:22:19;;;;;;;3.55;1.80;;;30.80;53.00;;;;;;5046760;28;20121;-83
2022/07/13 08:24:44;;;;;;;3.60;1.60;;;30.60;51.40;;;;;;5040388;28;20037;-83
2022/07/13 08:27:10;;;;;;;3.60;1.65;;;30.90;51.40;;;;;;5013285;28;20048;-83
2022/07/13 08:29:35;;;;;;;4.03;1.92;;;31.10;51.90;;;;;;5041990;28;20477;-83
2022/07/13 08:32:01;;;;;;;4.10;1.83;;;31.00;51.40;;;;;;5055336;28;20134;-83
2022/07/13 08:40:04;;;;;;;8.65;1.98;;;31.10;51.00;;;;;;5059966;28;20399;-84
2022/07/13 08:42:30;;;;;;;3.38;2.08;;;30.80;51.30;;;;;;5056710;28;20040;-85
2022/07/13 08:44:56;;;;;;;2.72;1.83;;;31.00;51.30;;;;;;5046145;28;20044;-85
2022/07/13 08:47:21;;;;;;;3.30;2.17;;;31.20;50.90;;;;;;5045057;28;20025;-85
2022/07/13 08:49:48;;;;;;;5.68;1.85;;;30.90;51.10;;;;;;5042647;28;20054;-86
2022/07/13 08:52:13;;;;;;;1.67;1.58;;;31.00;50.60;;;;;;5032788;28;20028;-85
2022/07/13 08:54:39;;;;;;;4.32;1.42;;;31.20;50.90;;;;;;5044076;28;20236;-86
2022/07/13 08:57:04;;;;;;;4.78;2.08;;;31.40;50.90;;;;;;5016535;28;20519;-85
2022/07/13 08:59:30;;;;;;;2.17;1.90;;;31.80;51.30;;;;;;5054658;28;20036;-86
2022/07/13 09:01:56;;;;;;;2.40;1.55;;;32.10;51.30;;;;;;5030210;28;20074;-86
2022/07/13 09:04:22;;;;;;;2.95;2.13;;;32.10;50.20;;;;;;5060084;28;20116;-87
2022/07/13 09:06:48;;;;;;;4.63;1.95;;;32.20;49.70;;;;;;5055708;28;20562;-85
2022/07/13 09:09:46;;;;;;;4.10;2.03;;;32.40;50.30;;;;;;5046550;28;20715;-87
2022/07/13 09:12:20;;;;;;;3.80;1.90;;;32.60;51.10;;;;;;5007920;28;20397;-87
2022/07/13 09:14:55;;;;;;;2.33;1.92;;;32.90;50.90;;;;;;5053804;28;20439;-87
2022/07/13 09:17:27;;;;;;;3.22;2.10;;;32.90;50.70;;;;;;5038801;28;20033;-87
2022/07/13 09:19:53;;;;;;;3.20;1.90;;;33.00;49.20;;;;;;5046948;28;20032;-88
2022/07/13 09:22:19;;;;;;;6.22;1.67;;;33.20;50.40;;;;;;5032954;28;20560;-88
2022/07/13 09:24:45;;;;;;;3.78;1.77;;;33.20;49.30;;;;;;5048127;28;20037;-87
2022/07/13 09:27:11;;;;;;;4.43;1.90;;;33.10;48.40;;;;;;5042512;28;20033;-88
2022/07/13 09:29:45;;;;;;;2.67;2.13;;;33.40;48.60;;;;;;5025971;28;20120;-88
2022/07/13 09:32:11;;;;;;;5.28;2.40;;;33.60;49.30;;;;;;5006247;28;20605;-88
2022/07/13 09:34:53;;;;;;;4.07;2.03;;;33.80;48.40;;;;;;5042991;28;22164;-86
2022/07/13 09:37:26;;;;;;;3.85;2.17;;;33.70;46.90;;;;;;5004364;28;20036;-87
2022/07/13 09:40:07;;;;;;;10.93;2.35;;;33.60;47.30;;;;;;5055441;28;20032;-86
2022/07/13 09:42:38;;;;;;;4.65;2.13;;;33.90;47.00;;;;;;5032023;28;20527;-85
2022/07/13 09:47:55;;;;;;;4.45;2.20;;;34.20;47.20;;;;;;5053211;28;20518;-84
2022/07/13 09:50:22;;;;;;;3.60;2.08;;;34.40;47.60;;;;;;5044169;28;20036;-84
2022/07/13 09:52:50;;;;;;;6.45;1.50;;;34.70;47.40;;;;;;5043128;28;20039;-82
2022/07/13 09:55:24;;;;;;;4.03;2.15;;;34.90;47.50;;;;;;5025704;28;20094;-81
2022/07/13 09:57:55;;;;;;;3.15;1.98;;;35.20;47.40;;;;;;5039965;28;20059;-81
2022/07/13 10:00:21;;;;;;;3.65;1.85;;;35.10;46.10;;;;;;5053313;28;20086;-82
2022/07/13 10:02:50;;;;;;;3.40;1.98;;;35.20;45.10;;;;;;5041863;28;20036;-80
2022/07/13 10:05:18;;;;;;;2.60;1.80;;;34.80;46.80;;;;;;5012274;28;20029;-80
2022/07/13 10:07:47;;;;;;;4.47;2.45;;;35.30;46.70;;;;;;5057620;28;20036;-80
2022/07/13 10:10:15;;;;;;;4.30;2.47;;;35.10;46.00;;;;;;5055585;28;20436;-80
2022/07/13 10:12:41;;;;;;;4.60;2.20;;;34.80;44.50;;;;;;5057333;28;20485;-80
2022/07/13 10:15:08;;;;;;;4.00;2.15;;;35.20;47.00;;;;;;5028591;28;20029;-79
2022/07/13 10:17:34;;;;;;;6.10;2.28;;;35.80;45.50;;;;;;5049792;28;20068;-80
2022/07/13 10:20:21;;;;;;;5.75;2.15;;;35.70;44.40;;;;;;5028368;28;20459;-80
2022/07/13 10:22:48;;;;;;;5.40;2.58;;;35.80;44.80;;;;;;5027254;28;20039;-79
2022/07/13 10:25:14;;;;;;;4.95;1.50;;;35.80;45.00;;;;;;5055241;28;20033;-80
2022/07/13 10:27:41;;;;;;;4.13;1.85;;;36.00;44.40;;;;;;5042894;28;20086;-80
2022/07/13 10:30:21;;;;;;;4.28;1.98;;;36.00;44.40;;;;;;5009117;28;20064;-79
2022/07/13 10:32:47;;;;;;;3.20;1.88;;;35.60;44.80;;;;;;5051689;28;20033;-79
2022/07/13 10:35:17;;;;;;;2.67;2.00;;;36.00;44.60;;;;;;5057938;28;20043;-80
2022/07/13 10:37:58;;;;;;;3.50;1.45;;;36.00;44.10;;;;;;5053006;28;20036;-79
2022/07/13 10:40:24;;;;;;;2.90;1.95;;;36.20;44.20;;;;;;5048687;28;20025;-77
2022/07/13 10:43:00;;;;;;;3.30;1.90;;;36.20;44.10;;;;;;5054025;28;20407;-78
2022/07/13 10:45:41;;;;;;;3.15;2.30;;;36.30;44.60;;;;;;5062081;28;20051;-77
2022/07/13 10:48:21;;;;;;;4.88;2.28;;;36.40;44.00;;;;;;5041081;28;20027;-77
2022/07/13 10:50:48;;;;;;;1.55;1.45;;;36.50;43.80;;;;;;5053335;28;20790;-81
2022/07/13 10:53:18;;;;;;;5.43;1.70;;;36.40;44.50;;;;;;5058025;28;20484;-78
2022/07/13 10:55:48;;;;;;;2.22;1.90;;;36.40;43.90;;;;;;5054121;28;20265;-82
2022/07/13 10:58:31;;;;;;;2.47;1.70;;;36.30;44.10;;;;;;5032496;28;20024;-82
2022/07/13 11:00:58;;;;;;;4.07;2.05;;;36.30;44.10;;;;;;5044470;28;20119;-80
2022/07/13 11:03:43;;;;;;;2.47;1.65;;;36.60;44.40;;;;;;5043696;28;20115;-82
2022/07/13 11:06:13;;;;;;;5.07;1.85;;;36.70;43.00;;;;;;5044907;28;20612;-84
2022/07/13 11:08:39;;;;;;;2.83;1.95;;;36.70;43.70;;;;;;5058211;28;20032;-81
2022/07/13 11:11:11;;;;;;;3.25;2.15;;;36.80;43.80;;;;;;5016827;28;20028;-82
2022/07/13 11:13:37;;;;;;;2.75;1.77;;;37.00;43.40;;;;;;5058130;28;20033;-80
2022/07/13 11:16:03;;;;;;;1.80;1.70;;;36.60;43.10;;;;;;5013316;28;20040;-82
2022/07/13 11:18:32;;;;;;;5.05;1.70;;;36.40;44.10;;;;;;5054782;28;20041;-82
2022/07/13 11:21:04;;;;;;;2.75;2.33;;;36.00;43.40;;;;;;4334296;28;10000463;-84
2022/07/13 11:26:44;;;;;;;2.88;2.15;;;35.90;44.60;;;;;;5044578;28;20031;-84
2022/07/13 11:29:24;;;;;;;7.03;1.98;;;36.00;44.10;;;;;;5053525;28;20570;-84
2022/07/13 11:31:59;;;;;;;3.95;1.73;;;35.80;44.50;;;;;;5056706;28;20033;-82
2022/07/13 11:34:25;;;;;;;4.43;2.00;;;35.70;44.70;;;;;;5037577;28;20033;-81
2022/07/13 11:36:55;;;;;;;6.78;1.92;;;35.90;44.60;;;;;;5009118;28;20056;-84
2022/07/13 11:39:29;;;;;;;2.72;1.67;;;35.30;44.40;;;;;;5054664;28;20036;-82
2022/07/13 11:41:55;;;;;;;2.60;1.80;;;35.70;44.70;;;;;;5050278;28;20037;-82
2022/07/13 11:44:24;;;;;;;5.82;1.40;;;35.80;44.50;;;;;;5045890;28;20128;-81
2022/07/13 11:46:49;;;;;;;4.93;1.40;;;35.90;43.90;;;;;;5051710;28;20033;-83
2022/07/13 11:49:15;;;;;;;7.13;2.00;;;35.90;43.80;;;;;;5029760;28;20090;-82
2022/07/13 11:51:44;;;;;;;6.78;1.70;;;36.00;44.30;;;;;;5042507;28;20071;-81
2022/07/13 11:54:20;;;;;;;6.22;2.70;;;36.20;44.10;;;;;;5058569;28;20506;-81
2022/07/13 11:56:52;;;;;;;3.70;1.88;;;36.20;44.10;;;;;;5058100;28;20025;-82
2022/07/13 11:59:37;;;;;;;2.58;1.63;;;36.20;44.40;;;;;;5043050;28;20039;-82
2022/07/13 12:02:03;;;;;;;6.57;1.85;;;36.40;44.60;;;;;;5038633;28;20044;-82
2022/07/13 12:04:29;;;;;;;4.15;1.83;;;36.70;44.30;;;;;;5059941;28;20557;-81
2022/07/13 12:07:32;;;;;;;5.22;2.00;;;36.90;43.80;;;;;;5043461;28;20055;-82
2022/07/13 12:10:04;;;;;;;2.28;1.55;;;37.00;43.90;;;;;;5041272;28;20116;-83
2022/07/13 12:12:37;;;;;;;3.92;1.70;;;37.10;43.50;;;;;;5057382;28;20404;-82
2022/07/13 12:15:03;;;;;;;6.20;1.85;;;37.10;43.80;;;;;;5057490;28;20028;-82
2022/07/13 12:17:31;;;;;;;2.60;1.70;;;37.10;43.60;;;;;;5058149;28;20040;-83
2022/07/13 12:20:14;;;;;;;1.63;1.52;;;37.50;42.80;;;;;;5058764;28;20490;-83
2022/07/13 12:22:39;;;;;;;6.57;1.98;;;37.70;42.70;;;;;;5055552;28;20468;-81
2022/07/13 12:25:06;;;;;;;2.72;1.90;;;37.80;42.40;;;;;;5037189;28;20057;-83
2022/07/13 12:27:32;;;;;;;2.83;1.83;;;37.80;42.50;;;;;;5036631;28;20032;-82
2022/07/13 12:30:15;;;;;;;4.72;1.60;;;37.80;42.50;;;;;;5030772;28;20032;-83
2022/07/13 12:33:03;;;;;;;3.22;1.88;;;37.80;42.40;;;;;;5054672;28;20404;-83
2022/07/13 12:35:36;;;;;;;3.08;1.85;;;37.90;42.40;;;;;;5029585;28;20049;-82
2022/07/13 12:38:08;;;;;;;6.30;2.42;;;37.90;42.60;;;;;;5014676;28;20450;-83
2022/07/13 12:40:42;;;;;;;3.55;2.05;;;37.70;43.00;;;;;;5050496;28;20488;-83
2022/07/13 12:43:28;;;;;;;2.83;1.98;;;37.40;42.70;;;;;;5047098;28;20037;-83
2022/07/13 12:46:00;;;;;;;;;;;37.20;43.00;;;;;;5038701;28;20107;-83
2022/07/13 12:48:27;;;;;;;3.35;2.17;;;37.20;43.70;;;;;;5054529;28;19912;-83
2022/07/13 12:51:03;;;;;;;3.05;2.00;;;37.60;42.80;;;;;;5042492;28;20098;-83
2022/07/13 12:53:47;;;;;;;5.30;2.03;;;37.30;42.20;;;;;;5038433;28;20044;-83
2022/07/13 12:56:17;;;;;;;4.18;2.20;;;37.40;41.90;;;;;;5039900;28;20399;-83
2022/07/13 12:58:44;;;;;;;2.50;1.95;;;37.50;42.60;;;;;;5059369;28;20644;-83
2022/07/13 13:01:24;;;;;;;1.92;1.48;;;37.30;42.80;;;;;;5043425;28;20049;-83